Time;durP1;ratioP1;P1;durP2;ratioP2;P2;SDS_P1;SDS_P2;PMS_P1;PMS_P2;Temp;Humidity;BMP_temperature;BMP_pressure;BME280_temperature;BME280_humidity;BME280_pressure;Samples;Min_cycle;Max_cycle;Signal;HPM_P1;HPM_P2
2021/12/24 06:47:59;;;;;;;;;;;;;;;4.24;61.49;96518.84;5036663;22;1394988;-68
2021/12/24 06:50:00;;;;;;;;;;;;;;;4.36;61.37;96527.19;5150848;23;5735;-69
2021/12/24 06:52:03;;;;;;;;;;;;;;;4.35;61.38;96525.56;5152047;23;5739;-69
2021/12/24 06:54:06;;;;;;;;;;;;;;;4.15;61.85;96530.25;5152606;23;5893;-69
2021/12/24 06:56:08;;;;;;;;;;;;;;;4.32;60.97;96531.94;5152630;23;5876;-69
2021/12/24 06:58:10;;;;;;;;;;;;;;;4.51;61.10;96530.81;5153417;23;5743;-69
2021/12/24 07:00:21;;;;;;;;;;;;;;;4.66;60.64;96531.00;5152944;23;5758;-69
2021/12/24 07:02:22;;;;;;;;;;;;;;;4.63;60.89;96544.41;5153046;23;5768;-69
2021/12/24 07:04:25;;;;;;;;;;;;;;;4.48;61.07;96531.13;5153618;23;5743;-69
2021/12/24 07:06:28;;;;;;;;;;;;;;;4.33;61.11;96535.38;5152563;23;5747;-69
2021/12/24 07:08:31;;;;;;;;;;;;;;;4.28;60.88;96532.41;5153353;23;5648;-69
2021/12/24 07:10:33;;;;;;;;;;;;;;;4.43;60.64;96532.63;5153203;23;5747;-70
2021/12/24 07:12:35;;;;;;;;;;;;;;;4.39;60.69;96532.09;5152825;23;5736;-69
2021/12/24 07:14:38;;;;;;;;;;;;;;;4.34;61.13;96522.13;5152897;23;5747;-67
2021/12/24 07:16:39;;;;;;;;;;;;;;;4.43;60.75;96528.19;5153068;23;6519;-67
2021/12/24 07:18:41;;;;;;;;;;;;;;;4.55;60.66;96521.66;5152466;23;5774;-69
2021/12/24 07:20:43;;;;;;;;;;;;;;;4.49;60.33;96519.69;5152251;23;5746;-69
2021/12/24 07:22:45;;;;;;;;;;;;;;;4.50;60.30;96517.88;5153316;23;5859;-69
2021/12/24 07:24:47;;;;;;;;;;;;;;;4.52;59.75;96510.69;5126341;23;5936;-69
2021/12/24 07:26:48;;;;;;;;;;;;;;;4.76;59.88;96513.34;5101382;23;5926;-69
2021/12/24 07:28:52;;;;;;;;;;;;;;;4.49;61.38;96511.84;5125802;23;5893;-70
2021/12/24 07:30:54;;;;;;;;;;;;;;;4.70;60.43;96515.78;5126199;23;5894;-70
2021/12/24 07:32:56;;;;;;;;;;;;;;;4.65;59.64;96517.09;5126007;23;6015;-70
2021/12/24 07:34:58;;;;;;;;;;;;;;;4.71;59.76;96526.09;5153222;23;5675;-70
2021/12/24 07:37:00;;;;;;;;;;;;;;;4.79;59.90;96522.66;5152235;23;5771;-68
2021/12/24 07:39:02;;;;;;;;;;;;;;;4.70;59.78;96526.25;5153126;23;5747;-69
2021/12/24 07:41:04;;;;;;;;;;;;;;;4.75;59.96;96521.34;5124341;23;6049;-69
2021/12/24 07:43:06;;;;;;;;;;;;;;;4.93;59.71;96514.97;5147164;23;5735;-68
2021/12/24 07:45:11;;;;;;;;;;;;;;;5.03;59.76;96522.66;5120279;23;5905;-69
2021/12/24 07:47:18;;;;;;;;;;;;;;;4.96;59.79;96524.28;5145846;23;5743;-70
2021/12/24 07:53:46;;;;;;;;;;;;;;;4.94;60.29;96532.31;5147150;23;5740;-69
2021/12/24 07:55:47;;;;;;;;;;;;;;;4.81;60.96;96518.91;5120104;23;5905;-69
2021/12/24 07:57:51;;;;;;;;;;;;;;;4.92;60.71;96517.75;5147279;23;5791;-69
2021/12/24 07:59:53;;;;;;;;;;;;;;;5.02;60.64;96521.03;5095693;23;5071;-68
2021/12/24 08:01:55;;;;;;;;;;;;;;;4.91;60.23;96521.34;5095677;23;5955;-68
2021/12/24 08:03:58;;;;;;;;;;;;;;;4.83;60.48;96519.53;5147294;23;5731;-69
2021/12/24 08:05:59;;;;;;;;;;;;;;;4.95;60.82;96525.28;5119978;23;5956;-68
2021/12/24 08:08:02;;;;;;;;;;;;;;;4.87;60.31;96520.03;5147012;23;5843;-68
2021/12/24 08:10:04;;;;;;;;;;;;;;;4.89;61.15;96524.13;5120677;23;6033;-69
2021/12/24 08:12:09;;;;;;;;;;;;;;;5.04;61.15;96516.44;5120448;23;5909;-68
2021/12/24 08:14:10;;;;;;;;;;;;;;;5.03;60.83;96520.03;5120447;23;5987;-68
2021/12/24 08:16:15;;;;;;;;;;;;;;;5.07;60.91;96516.09;5146549;23;5743;-68
2021/12/24 08:18:16;;;;;;;;;;;;;;;5.01;60.96;96511.53;5146696;23;7011;-67
2021/12/24 08:20:23;;;;;;;;;;;;;;;5.18;60.52;96517.56;5095101;23;6003;-67
2021/12/24 08:22:25;;;;;;;;;;;;;;;5.02;60.78;96513.16;5118387;23;5885;-67
2021/12/24 08:24:27;;;;;;;;;;;;;;;4.97;61.21;96510.19;5145646;23;5728;-67
2021/12/24 08:26:31;;;;;;;;;;;;;;;4.90;61.35;96499.56;5147391;23;5825;-67
2021/12/24 08:28:32;;;;;;;;;;;;;;;4.90;61.46;96506.63;5148349;23;5755;-67
2021/12/24 08:30:34;;;;;;;;;;;;;;;4.88;61.40;96495.50;5120877;23;6009;-67
2021/12/24 08:32:39;;;;;;;;;;;;;;;4.88;61.41;96498.13;5120163;23;5908;-68
2021/12/24 08:34:41;;;;;;;;;;;;;;;4.95;61.65;96499.06;5093389;23;5954;-68
2021/12/24 08:36:43;;;;;;;;;;;;;;;5.08;61.12;96506.44;5118210;23;5897;-68
2021/12/24 08:38:44;;;;;;;;;;;;;;;4.87;61.85;96502.53;5145587;23;5040;-67
2021/12/24 08:40:48;;;;;;;;;;;;;;;4.91;62.03;96495.97;5145522;23;7684;-68
2021/12/24 08:42:50;;;;;;;;;;;;;;;5.08;61.58;96498.56;5146365;23;5826;-68
2021/12/24 08:44:52;;;;;;;;;;;;;;;5.10;61.25;96499.25;5145767;23;5731;-68
2021/12/24 08:46:54;;;;;;;;;;;;;;;5.07;61.46;96497.75;5145521;23;5738;-68
2021/12/24 08:48:56;;;;;;;;;;;;;;;5.18;60.95;96494.78;5119392;23;5798;-68
2021/12/24 08:50:58;;;;;;;;;;;;;;;5.20;60.65;96500.66;5118926;23;5897;-68
2021/12/24 08:52:59;;;;;;;;;;;;;;;5.07;60.65;96499.56;5093919;23;5965;-68
2021/12/24 08:55:03;;;;;;;;;;;;;;;5.23;60.63;96495.13;5095325;23;5909;-68
2021/12/24 08:57:04;;;;;;;;;;;;;;;5.40;60.76;96487.19;5118150;23;5926;-68
2021/12/24 08:59:07;;;;;;;;;;;;;;;5.47;60.43;96485.56;5119373;23;5897;-68
2021/12/24 09:01:09;;;;;;;;;;;;;;;5.45;59.96;96488.34;5120691;23;5864;-68
2021/12/24 09:03:13;;;;;;;;;;;;;;;5.36;61.08;96485.91;5119976;23;6014;-69
2021/12/24 09:05:15;;;;;;;;;;;;;;;5.36;61.80;96472.81;5119152;23;6001;-68
2021/12/24 09:07:17;;;;;;;;;;;;;;;5.49;61.40;96476.53;5119530;23;5921;-69
2021/12/24 09:09:18;;;;;;;;;;;;;;;5.62;60.81;96475.97;5120763;23;5840;-68
2021/12/24 09:11:20;;;;;;;;;;;;;;;5.69;61.30;96479.56;5119720;23;6332;-69
2021/12/24 09:13:22;;;;;;;;;;;;;;;5.51;64.82;96481.59;5115904;23;5840;-69
2021/12/24 09:15:30;;;;;;;;;;;;;;;5.44;63.54;96472.78;5116802;23;5069;-70
2021/12/24 09:17:32;;;;;;;;;;;;;;;5.66;63.24;96479.06;5119067;23;5966;-72
2021/12/24 09:19:34;;;;;;;;;;;;;;;5.74;63.02;96485.13;5120339;23;5851;-70
2021/12/24 09:21:41;;;;;;;;;;;;;;;5.79;62.84;96477.56;5120516;23;5887;-68
2021/12/24 09:23:48;;;;;;;;;;;;;;;5.80;62.73;96481.00;5122414;23;6701;-68
2021/12/24 09:26:02;;;;;;;;;;;;;;;5.86;62.11;96488.19;5117354;23;5848;-69
2021/12/24 09:28:05;;;;;;;;;;;;;;;5.93;62.90;96486.56;5116426;23;5840;-68
2021/12/24 09:30:07;;;;;;;;;;;;;;;5.74;64.37;96479.88;5118304;23;5872;-68
2021/12/24 09:32:09;;;;;;;;;;;;;;;5.59;62.34;96488.63;5115756;23;5921;-68
2021/12/24 09:34:11;;;;;;;;;;;;;;;5.72;62.64;96494.97;5119099;23;5851;-68
2021/12/24 09:36:23;;;;;;;;;;;;;;;5.88;62.75;96498.50;5118059;23;5856;-68
2021/12/24 09:38:25;;;;;;;;;;;;;;;5.86;62.22;96490.81;5118831;23;5065;-67
2021/12/24 09:40:27;;;;;;;;;;;;;;;5.79;62.01;96485.44;5118480;23;7850;-68
2021/12/24 09:42:30;;;;;;;;;;;;;;;5.89;62.50;96481.75;5115508;23;5912;-71
2021/12/24 09:44:35;;;;;;;;;;;;;;;5.83;63.29;96488.53;5118696;23;5870;-74
2021/12/24 09:46:41;;;;;;;;;;;;;;;5.80;64.93;96487.06;5117818;23;5852;-70
2021/12/24 09:48:45;;;;;;;;;;;;;;;5.70;65.98;96475.97;5137992;23;5823;-72
2021/12/24 09:50:47;;;;;;;;;;;;;;;5.58;66.14;96472.06;5143365;23;5856;-70
2021/12/24 09:52:49;;;;;;;;;;;;;;;5.64;66.68;96476.63;5145508;23;5755;-66
2021/12/24 09:54:52;;;;;;;;;;;;;;;5.72;66.76;96463.50;5117190;23;5806;-66
2021/12/24 09:56:56;;;;;;;;;;;;;;;5.69;67.28;96458.59;5142374;23;5743;-65
2021/12/24 09:58:57;;;;;;;;;;;;;;;5.72;67.14;96453.00;5118189;23;5912;-66
2021/12/24 10:01:00;;;;;;;;;;;;;;;5.60;68.33;96451.75;5117421;23;5913;-66
2021/12/24 10:03:03;;;;;;;;;;;;;;;5.58;68.09;96443.22;5146485;23;5841;-67
2021/12/24 10:05:25;;;;;;;;;;;;;;;5.46;68.49;96437.53;5119491;23;6017;-67
2021/12/24 10:07:35;;;;;;;;;;;;;;;5.39;69.42;96423.47;5145621;23;5834;-67
2021/12/24 10:09:38;;;;;;;;;;;;;;;5.40;69.61;96422.47;5119607;23;5912;-67
2021/12/24 10:11:56;;;;;;;;;;;;;;;5.53;69.01;96417.50;5146278;23;5751;-67
2021/12/24 10:14:05;;;;;;;;;;;;;;;5.60;68.47;96422.91;5097412;23;5944;-67
2021/12/24 10:16:13;;;;;;;;;;;;;;;5.73;67.89;96410.03;5119619;23;5923;-67
2021/12/24 10:18:38;;;;;;;;;;;;;;;5.68;68.82;96422.06;5145886;23;5739;-67
2021/12/24 10:20:56;;;;;;;;;;;;;;;5.75;68.13;96420.34;5146330;23;5655;-65
2021/12/24 10:22:58;;;;;;;;;;;;;;;5.66;69.96;96416.94;5123098;23;6614;-66
2021/12/24 10:25:07;;;;;;;;;;;;;;;5.74;69.29;96432.66;5146173;23;5862;-66
2021/12/24 10:27:09;;;;;;;;;;;;;;;5.77;69.30;96437.56;5146238;23;5747;-66
2021/12/24 10:29:17;;;;;;;;;;;;;;;5.61;69.72;96434.19;5119474;23;6068;-67
2021/12/24 10:31:27;;;;;;;;;;;;;;;5.60;70.13;96429.94;5145908;23;5767;-67
2021/12/24 10:33:29;;;;;;;;;;;;;;;5.56;69.69;96419.00;5146190;23;5039;-66
2021/12/24 10:35:31;;;;;;;;;;;;;;;5.58;69.88;96429.31;5119079;23;5905;-66
2021/12/24 10:37:33;;;;;;;;;;;;;;;5.72;68.77;96418.09;5146056;23;5648;-66
2021/12/24 10:39:41;;;;;;;;;;;;;;;5.84;68.62;96417.53;5145821;23;5467;-67
2021/12/24 10:41:48;;;;;;;;;;;;;;;5.74;68.51;96418.72;5119329;23;7791;-67
2021/12/24 10:43:51;;;;;;;;;;;;;;;5.84;67.98;96409.66;5094691;23;5923;-66
2021/12/24 10:46:13;;;;;;;;;;;;;;;5.87;66.58;96408.47;5146172;23;6591;-66
2021/12/24 10:48:20;;;;;;;;;;;;;;;5.98;66.85;96409.94;5146103;23;5645;-66
2021/12/24 10:52:42;;;;;;;;;;;;;;;6.11;66.44;96415.41;5119339;23;7752;-66
2021/12/24 10:54:51;;;;;;;;;;;;;;;5.97;67.15;96403.88;5119286;23;6011;-66
2021/12/24 10:56:55;;;;;;;;;;;;;;;5.98;67.50;96407.31;5145922;23;5882;-66
2021/12/24 10:58:57;;;;;;;;;;;;;;;6.00;66.59;96406.16;5145849;23;5746;-66
2021/12/24 11:01:00;;;;;;;;;;;;;;;5.94;63.97;96395.53;5145786;23;6376;-66
2021/12/24 11:03:08;;;;;;;;;;;;;;;5.88;64.95;96396.19;5146159;23;5790;-66
2021/12/24 11:05:30;;;;;;;;;;;;;;;5.83;62.96;96391.47;5120791;23;5806;-67
2021/12/24 11:07:39;;;;;;;;;;;;;;;5.89;61.72;96395.19;5145503;23;5820;-67
2021/12/24 11:10:15;;;;;;;;;;;;;;;6.02;61.98;96382.38;5146029;23;5906;-67
2021/12/24 11:12:57;;;;;;;;;;;;;;;6.11;61.01;96378.66;5094431;23;8034;-66
2021/12/24 11:14:59;;;;;;;;;;;;;;;6.17;60.01;96388.47;5020862;23;5743;-67
2021/12/24 11:17:02;;;;;;;;;;;;;;;6.27;59.78;96375.94;5044281;23;5770;-67
2021/12/24 11:19:06;;;;;;;;;;;;;;;6.27;58.33;96380.38;5022116;23;5762;-67
2021/12/24 11:21:21;;;;;;;;;;;;;;;6.21;58.25;96374.00;5045411;23;5775;-67
2021/12/24 11:23:24;;;;;;;;;;;;;;;6.23;58.03;96364.16;5022117;23;5797;-67
2021/12/24 11:25:32;;;;;;;;;;;;;;;6.17;56.29;96354.38;5021936;23;5746;-67
2021/12/24 11:27:34;;;;;;;;;;;;;;;6.21;56.51;96353.00;5022486;23;5735;-66
2021/12/24 11:29:35;;;;;;;;;;;;;;;6.07;56.25;96341.47;5045375;23;5739;-67
2021/12/24 11:31:38;;;;;;;;;;;;;;;6.11;56.57;96344.56;5045965;23;7173;-66
2021/12/24 11:33:45;;;;;;;;;;;;;;;6.11;57.13;96342.75;4998631;23;5854;-66
2021/12/24 11:35:49;;;;;;;;;;;;;;;6.20;58.26;96346.13;5045706;23;7708;-66
2021/12/24 11:37:53;;;;;;;;;;;;;;;6.21;58.09;96360.06;5046412;23;5719;-66
2021/12/24 11:40:00;;;;;;;;;;;;;;;6.21;59.81;96353.00;5022800;23;5754;-67
2021/12/24 11:42:03;;;;;;;;;;;;;;;6.33;60.66;96350.78;5046042;23;5884;-66
2021/12/24 11:44:07;;;;;;;;;;;;;;;6.36;60.76;96348.63;5044985;23;5739;-65
2021/12/24 11:46:11;;;;;;;;;;;;;;;6.27;61.57;96341.81;5102201;23;5735;-66
2021/12/24 11:48:14;;;;;;;;;;;;;;;6.13;61.41;96347.84;5118974;23;5902;-65
2021/12/24 11:50:16;;;;;;;;;;;;;;;6.26;61.50;96358.56;5145373;23;5843;-66
2021/12/24 11:52:18;;;;;;;;;;;;;;;6.33;61.71;96345.53;5146484;23;5743;-66
2021/12/24 11:54:20;;;;;;;;;;;;;;;6.22;62.07;96343.31;5146505;23;5747;-66
2021/12/24 11:56:23;;;;;;;;;;;;;;;6.09;62.66;96333.41;5120201;23;6586;-65
2021/12/24 11:58:25;;;;;;;;;;;;;;;6.19;62.17;96323.50;5146745;23;5766;-66
2021/12/24 12:00:40;;;;;;;;;;;;;;;6.17;62.26;96319.44;5146915;23;5654;-66
2021/12/24 12:02:45;;;;;;;;;;;;;;;6.15;62.12;96316.97;5145460;23;6514;-66
2021/12/24 12:05:26;;;;;;;;;;;;;;;6.20;61.79;96322.50;5145622;23;5768;-67
2021/12/24 12:07:28;;;;;;;;;;;;;;;6.18;61.59;96327.13;5095055;23;5938;-67
2021/12/24 12:09:40;;;;;;;;;;;;;;;6.18;61.20;96321.88;5119619;23;5925;-67
2021/12/24 12:11:44;;;;;;;;;;;;;;;6.23;61.24;96324.78;5120191;23;5929;-67
2021/12/24 12:13:49;;;;;;;;;;;;;;;6.11;61.20;96318.31;5147026;23;5750;-67
2021/12/24 12:15:57;;;;;;;;;;;;;;;6.14;58.95;96307.47;5146780;23;5851;-67
2021/12/24 12:17:59;;;;;;;;;;;;;;;6.18;59.42;96300.88;5146620;23;5739;-67
2021/12/24 12:20:01;;;;;;;;;;;;;;;6.27;59.28;96314.75;5145707;23;5790;-67
2021/12/24 12:22:31;;;;;;;;;;;;;;;6.33;60.39;96304.34;5146264;23;5791;-67
2021/12/24 12:24:59;;;;;;;;;;;;;;;6.39;61.75;96314.13;5119869;23;5921;-67
2021/12/24 12:27:15;;;;;;;;;;;;;;;6.28;62.56;96304.06;5116777;23;5897;-67
2021/12/24 12:29:18;;;;;;;;;;;;;;;6.38;62.53;96307.25;5094963;23;5222;-67
2021/12/24 12:31:21;;;;;;;;;;;;;;;6.24;62.51;96291.50;5145373;23;7705;-67
2021/12/24 12:33:31;;;;;;;;;;;;;;;6.37;62.81;96295.13;5146329;23;5724;-68
2021/12/24 12:35:45;;;;;;;;;;;;;;;6.59;62.93;96308.38;5147104;23;5883;-68
2021/12/24 12:37:51;;;;;;;;;;;;;;;6.29;65.25;96282.06;5119662;23;5813;-67
2021/12/24 12:40:17;;;;;;;;;;;;;;;6.39;64.89;96290.50;5144882;23;5701;-68
2021/12/24 12:42:21;;;;;;;;;;;;;;;6.52;64.88;96304.81;5119018;23;5897;-68
2021/12/24 12:44:23;;;;;;;;;;;;;;;6.26;65.16;96285.06;5146328;23;5832;-68
2021/12/24 12:46:34;;;;;;;;;;;;;;;6.31;65.42;96306.31;5119525;23;6005;-67
2021/12/24 12:48:45;;;;;;;;;;;;;;;6.24;65.63;96296.75;5119511;23;5905;-67
2021/12/24 12:50:58;;;;;;;;;;;;;;;6.38;64.48;96299.38;5119016;23;5925;-68
2021/12/24 12:53:21;;;;;;;;;;;;;;;6.51;64.16;96300.56;5145768;23;5747;-67
2021/12/24 12:55:30;;;;;;;;;;;;;;;6.39;63.84;96298.38;5118178;23;5901;-67
2021/12/24 12:57:36;;;;;;;;;;;;;;;6.34;63.55;96285.00;5119195;23;5889;-67
2021/12/24 12:59:41;;;;;;;;;;;;;;;6.39;63.74;96281.81;5119622;23;6517;-67
2021/12/24 13:01:51;;;;;;;;;;;;;;;6.61;63.32;96285.38;5145918;23;5791;-67
2021/12/24 13:03:57;;;;;;;;;;;;;;;6.49;63.73;96287.63;5145888;23;5751;-67
2021/12/24 13:06:04;;;;;;;;;;;;;;;6.52;63.54;96270.69;5146296;23;5659;-67
2021/12/24 13:08:12;;;;;;;;;;;;;;;6.48;63.50;96269.44;5093610;23;5922;-67
2021/12/24 13:10:16;;;;;;;;;;;;;;;6.57;63.73;96273.56;5145552;23;5751;-67
2021/12/24 13:12:18;;;;;;;;;;;;;;;6.64;63.18;96270.06;5094269;23;5913;-66
2021/12/24 13:14:24;;;;;;;;;;;;;;;6.72;62.78;96275.22;5146393;23;5764;-66
2021/12/24 13:16:33;;;;;;;;;;;;;;;6.86;62.78;96273.59;5146006;23;5760;-66
2021/12/24 13:18:35;;;;;;;;;;;;;;;6.91;62.65;96276.50;5097385;23;6567;-66
2021/12/24 13:22:26;;;;;;;;;;;;;;;6.90;63.47;96285.34;5147992;23;5847;-67
2021/12/24 13:23:21;;;;;;;;;;;;;;;6.95;63.37;96275.13;5147946;23;6633;-67
2021/12/24 13:25:24;;;;;;;;;;;;;;;6.78;63.76;96263.16;5143254;23;5895;-67
2021/12/24 13:27:28;;;;;;;;;;;;;;;6.74;63.78;96264.53;5118430;23;5901;-67
2021/12/24 13:29:30;;;;;;;;;;;;;;;6.86;63.77;96264.88;5118674;23;5904;-66
2021/12/24 13:31:32;;;;;;;;;;;;;;;6.81;64.20;96257.56;5118461;23;6021;-66
2021/12/24 13:33:35;;;;;;;;;;;;;;;6.75;64.33;96250.41;5119385;23;5917;-66
2021/12/24 13:35:47;;;;;;;;;;;;;;;6.90;64.47;96260.88;5145413;23;5782;-67
2021/12/24 13:37:49;;;;;;;;;;;;;;;6.88;64.43;96255.00;5118891;23;5905;-67
2021/12/24 13:39:52;;;;;;;;;;;;;;;6.92;64.91;96245.78;5143961;23;5786;-67
2021/12/24 13:42:07;;;;;;;;;;;;;;;6.95;64.75;96250.66;5094089;23;5931;-67
2021/12/24 13:44:21;;;;;;;;;;;;;;;7.07;64.53;96237.84;5118456;23;6019;-67
2021/12/24 13:46:24;;;;;;;;;;;;;;;7.08;64.16;96236.84;5118214;23;5936;-67
2021/12/24 13:48:31;;;;;;;;;;;;;;;6.90;65.17;96237.22;5118266;23;5905;-67
2021/12/24 13:55:35;;;;;;;;;;;;;;;7.20;65.66;96238.81;5144524;23;5747;-67
2021/12/24 13:57:37;;;;;;;;;;;;;;;7.22;65.57;96247.31;5146018;23;5771;-66
2021/12/24 13:59:40;;;;;;;;;;;;;;;7.13;64.28;96240.53;5094719;23;5090;-66
2021/12/24 14:01:43;;;;;;;;;;;;;;;7.15;62.82;96229.88;5119099;23;7764;-66
2021/12/24 14:03:47;;;;;;;;;;;;;;;7.08;61.60;96242.13;5117904;23;5909;-66
2021/12/24 14:05:51;;;;;;;;;;;;;;;7.04;61.02;96243.50;5144360;23;5660;-66
2021/12/24 14:08:42;;;;;;;;;;;;;;;6.89;61.99;96236.41;5145313;23;5794;-66
2021/12/24 14:10:46;;;;;;;;;;;;;;;6.79;61.95;96225.38;5133458;23;5739;-67
2021/12/24 14:12:48;;;;;;;;;;;;;;;6.81;62.01;96226.03;5119339;23;5937;-67
2021/12/24 14:15:06;;;;;;;;;;;;;;;6.89;61.88;96225.91;5119182;23;5909;-66
2021/12/24 14:20:06;;;;;;;;;;;;;;;6.82;62.90;96224.22;5118684;23;5909;-67
2021/12/24 14:22:07;;;;;;;;;;;;;;;7.05;62.59;96224.09;5145600;23;5732;-64
2021/12/24 14:24:15;;;;;;;;;;;;;;;7.08;63.01;96228.97;5119733;23;5826;-64
2021/12/24 14:26:17;;;;;;;;;;;;;;;6.96;63.09;96226.81;5145667;23;5059;-64
2021/12/24 14:28:21;;;;;;;;;;;;;;;6.91;63.33;96223.13;5119183;23;5889;-64
2021/12/24 14:30:22;;;;;;;;;;;;;;;7.04;62.98;96227.72;5145977;23;5755;-67
2021/12/24 14:32:36;;;;;;;;;;;;;;;7.02;63.97;96227.88;5119008;23;5926;-64
2021/12/24 14:34:47;;;;;;;;;;;;;;;6.93;64.24;96227.19;5118989;23;5901;-66
2021/12/24 14:37:08;;;;;;;;;;;;;;;6.85;64.46;96227.28;5118061;23;6033;-65
2021/12/24 14:39:17;;;;;;;;;;;;;;;7.02;64.17;96225.25;5118319;23;5965;-65
2021/12/24 14:41:23;;;;;;;;;;;;;;;7.08;64.17;96235.03;5145116;23;5855;-65
2021/12/24 14:43:31;;;;;;;;;;;;;;;7.22;63.75;96222.84;5118745;23;5913;-65
2021/12/24 14:45:41;;;;;;;;;;;;;;;7.18;63.97;96226.88;5118117;23;5941;-66
2021/12/24 14:47:56;;;;;;;;;;;;;;;7.14;63.87;96228.25;5144964;23;5834;-65
2021/12/24 14:50:02;;;;;;;;;;;;;;;7.21;64.20;96229.94;5118853;23;5913;-67
2021/12/24 14:52:24;;;;;;;;;;;;;;;7.35;64.20;96224.81;5146659;23;6361;-67
2021/12/24 14:54:26;;;;;;;;;;;;;;;7.40;64.59;96222.44;5147371;23;5836;-67
2021/12/24 14:56:36;;;;;;;;;;;;;;;7.29;64.09;96218.50;5146613;23;5735;-66
2021/12/24 14:58:41;;;;;;;;;;;;;;;7.34;62.04;96216.09;5120341;23;5810;-65
2021/12/24 15:00:47;;;;;;;;;;;;;;;7.45;64.52;96226.13;5095844;23;5973;-66
2021/12/24 15:02:51;;;;;;;;;;;;;;;7.38;63.39;96209.50;5120037;23;5913;-65
2021/12/24 15:04:55;;;;;;;;;;;;;;;7.40;62.33;96210.09;5095286;23;5975;-66
2021/12/24 15:07:00;;;;;;;;;;;;;;;7.43;63.14;96209.72;5145906;23;5768;-66
2021/12/24 15:09:11;;;;;;;;;;;;;;;7.51;64.56;96224.56;5119222;23;5898;-66
2021/12/24 15:11:20;;;;;;;;;;;;;;;7.51;65.99;96235.09;5147350;23;5899;-66
2021/12/24 15:13:23;;;;;;;;;;;;;;;7.38;68.19;96225.25;5120572;23;5905;-66
2021/12/24 15:15:24;;;;;;;;;;;;;;;7.50;69.23;96222.94;5145925;23;5735;-66
2021/12/24 15:17:37;;;;;;;;;;;;;;;7.18;69.66;96213.72;5094472;23;5938;-66
2021/12/24 15:19:39;;;;;;;;;;;;;;;7.05;69.93;96219.66;5119258;23;5901;-66
2021/12/24 15:21:40;;;;;;;;;;;;;;;7.00;69.98;96224.63;5146973;23;5747;-67
2021/12/24 15:23:42;;;;;;;;;;;;;;;7.13;68.76;96227.41;5147192;23;5791;-67
2021/12/24 15:25:46;;;;;;;;;;;;;;;7.08;68.69;96229.78;5118814;23;5885;-66
2021/12/24 15:27:50;;;;;;;;;;;;;;;7.19;68.23;96231.13;5146448;23;7873;-66
2021/12/24 15:29:52;;;;;;;;;;;;;;;7.12;67.77;96238.09;5146348;23;5739;-66
2021/12/24 15:31:54;;;;;;;;;;;;;;;7.07;67.95;96232.59;5119295;23;6139;-66
2021/12/24 15:34:00;;;;;;;;;;;;;;;7.13;67.10;96237.09;5145495;23;6048;-66
2021/12/24 15:36:03;;;;;;;;;;;;;;;6.81;67.34;96233.91;5119386;23;5909;-66
2021/12/24 15:38:06;;;;;;;;;;;;;;;6.98;67.13;96235.31;5146243;23;5759;-66
2021/12/24 15:40:09;;;;;;;;;;;;;;;6.75;68.30;96234.63;5146561;23;5742;-65
2021/12/24 15:42:11;;;;;;;;;;;;;;;6.62;68.99;96232.66;5120057;23;5905;-65
2021/12/24 15:44:15;;;;;;;;;;;;;;;6.77;68.91;96237.88;5120420;23;5897;-65
2021/12/24 15:46:21;;;;;;;;;;;;;;;6.85;68.05;96237.81;5118874;23;5902;-66
2021/12/24 15:48:25;;;;;;;;;;;;;;;6.80;68.95;96247.25;5119976;23;5969;-65
2021/12/24 15:50:27;;;;;;;;;;;;;;;6.72;69.35;96242.88;5094831;23;6045;-65
2021/12/24 15:52:28;;;;;;;;;;;;;;;6.79;68.82;96251.66;5122393;23;5849;-66
2021/12/24 15:54:31;;;;;;;;;;;;;;;6.92;68.01;96251.03;5120938;23;5848;-68
2021/12/24 15:56:33;;;;;;;;;;;;;;;6.85;69.92;96247.50;5121035;23;5831;-66
2021/12/24 15:58:37;;;;;;;;;;;;;;;6.98;68.40;96245.84;5121087;23;5967;-66
2021/12/24 16:00:43;;;;;;;;;;;;;;;7.13;67.79;96258.13;5119228;23;5901;-66
2021/12/24 16:02:45;;;;;;;;;;;;;;;7.16;67.63;96245.44;5093659;23;5934;-66
2021/12/24 16:04:49;;;;;;;;;;;;;;;7.20;67.84;96244.06;5120925;23;5836;-66
2021/12/24 16:06:52;;;;;;;;;;;;;;;7.26;67.60;96242.53;5120026;23;5997;-66
2021/12/24 16:08:53;;;;;;;;;;;;;;;6.97;71.46;96235.50;5121303;23;7430;-66
2021/12/24 16:10:56;;;;;;;;;;;;;;;6.80;72.03;96232.28;5095690;23;6567;-66
2021/12/24 16:12:58;;;;;;;;;;;;;;;6.93;70.66;96224.56;5119479;23;5909;-66
2021/12/24 16:15:00;;;;;;;;;;;;;;;7.05;70.89;96231.97;5120225;23;5889;-66
2021/12/24 16:17:04;;;;;;;;;;;;;;;6.99;70.91;96221.19;5121632;23;5852;-66
2021/12/24 16:19:06;;;;;;;;;;;;;;;6.77;71.89;96226.56;5094774;23;6618;-66
2021/12/24 16:21:08;;;;;;;;;;;;;;;6.84;71.51;96223.03;5121787;23;5844;-66
2021/12/24 16:23:10;;;;;;;;;;;;;;;6.78;69.78;96226.38;5095381;23;5815;-66
2021/12/24 16:25:12;;;;;;;;;;;;;;;6.76;69.83;96233.63;5118928;23;5942;-66
2021/12/24 16:27:15;;;;;;;;;;;;;;;6.83;68.77;96224.03;5121566;23;5844;-66
2021/12/24 16:29:18;;;;;;;;;;;;;;;6.82;68.69;96229.47;5120720;23;5848;-67
2021/12/24 16:31:22;;;;;;;;;;;;;;;6.87;69.10;96227.09;5120751;23;5848;-66
2021/12/24 16:33:24;;;;;;;;;;;;;;;6.89;69.50;96220.66;5119378;23;5952;-66
2021/12/24 16:35:28;;;;;;;;;;;;;;;6.75;71.01;96226.75;5119574;23;6152;-66
2021/12/24 16:37:33;;;;;;;;;;;;;;;6.83;70.48;96231.09;5120081;23;7572;-66
2021/12/24 16:39:35;;;;;;;;;;;;;;;6.91;71.13;96221.31;5121083;23;5928;-66
2021/12/24 16:41:41;;;;;;;;;;;;;;;7.03;70.72;96211.13;5120944;23;5862;-66
2021/12/24 16:43:43;;;;;;;;;;;;;;;7.15;70.18;96214.91;5118890;23;6009;-67
2021/12/24 16:45:47;;;;;;;;;;;;;;;7.11;70.48;96207.56;5121131;23;5039;-67
2021/12/24 16:47:49;;;;;;;;;;;;;;;6.83;69.15;96212.72;5093960;23;5078;-67
2021/12/24 16:49:51;;;;;;;;;;;;;;;6.94;69.77;96218.31;5121232;23;5843;-66
2021/12/24 16:51:53;;;;;;;;;;;;;;;6.93;69.50;96208.81;5120571;23;5856;-66
2021/12/24 16:53:55;;;;;;;;;;;;;;;6.90;70.73;96201.25;5120733;23;5979;-67
2021/12/24 16:55:56;;;;;;;;;;;;;;;6.95;69.84;96191.03;5122724;23;6373;-66
2021/12/24 16:58:01;;;;;;;;;;;;;;;7.03;69.97;96191.94;5124109;23;5746;-66
2021/12/24 17:00:09;;;;;;;;;;;;;;;7.13;69.84;96189.78;5123097;23;5872;-66
2021/12/24 17:02:14;;;;;;;;;;;;;;;6.84;70.75;96201.19;5099100;23;5847;-65
2021/12/24 17:04:18;;;;;;;;;;;;;;;6.56;72.26;96214.16;5124345;23;5761;-65
2021/12/24 17:06:20;;;;;;;;;;;;;;;6.46;72.80;96208.41;5121874;23;5920;-68
2021/12/24 17:08:22;;;;;;;;;;;;;;;6.63;72.16;96212.47;5123835;23;5741;-68
2021/12/24 17:10:24;;;;;;;;;;;;;;;6.70;72.07;96205.47;5123309;23;5916;-67
2021/12/24 17:12:27;;;;;;;;;;;;;;;6.74;71.92;96200.66;5123445;23;6440;-67
2021/12/24 17:14:34;;;;;;;;;;;;;;;6.75;72.45;96195.22;5123176;23;5773;-67
2021/12/24 17:16:38;;;;;;;;;;;;;;;6.73;73.18;96205.13;5123459;23;6029;-67
2021/12/24 17:18:41;;;;;;;;;;;;;;;6.81;73.06;96205.00;5124018;23;6925;-67
2021/12/24 17:20:43;;;;;;;;;;;;;;;6.82;73.21;96204.00;5121903;23;5889;-67
2021/12/24 17:22:45;;;;;;;;;;;;;;;6.63;75.31;96188.81;5122498;23;5933;-67
2021/12/24 17:24:47;;;;;;;;;;;;;;;6.73;75.19;96189.34;5122413;23;5786;-67
2021/12/24 17:26:49;;;;;;;;;;;;;;;6.75;74.70;96184.72;5122295;23;5831;-68
2021/12/24 17:28:51;;;;;;;;;;;;;;;6.77;74.66;96184.53;5123606;23;6394;-67
2021/12/24 17:30:55;;;;;;;;;;;;;;;6.77;75.09;96187.16;5125225;23;5829;-67
2021/12/24 17:32:57;;;;;;;;;;;;;;;6.67;75.99;96184.81;5123552;23;6412;-67
2021/12/24 17:34:59;;;;;;;;;;;;;;;6.67;75.77;96184.81;5123055;23;5905;-67
2021/12/24 17:37:02;;;;;;;;;;;;;;;6.68;75.80;96186.44;5124005;23;5790;-67
2021/12/24 17:39:03;;;;;;;;;;;;;;;6.56;76.08;96180.84;5123746;23;5752;-67
2021/12/24 17:41:05;;;;;;;;;;;;;;;6.48;76.04;96177.53;5123378;23;5748;-67
2021/12/24 17:43:12;;;;;;;;;;;;;;;6.53;75.90;96172.53;5123760;23;5790;-67
2021/12/24 17:45:14;;;;;;;;;;;;;;;6.50;76.38;96178.16;5124607;23;5849;-67
2021/12/24 17:47:15;;;;;;;;;;;;;;;6.41;76.34;96167.75;5125824;23;5744;-69
2021/12/24 17:49:18;;;;;;;;;;;;;;;6.58;75.77;96171.00;5149040;23;5632;-68
2021/12/24 17:51:21;;;;;;;;;;;;;;;6.52;75.66;96165.66;5122920;23;5810;-68
2021/12/24 17:53:22;;;;;;;;;;;;;;;6.41;76.50;96170.34;5149077;23;5652;-68
2021/12/24 17:55:25;;;;;;;;;;;;;;;6.29;77.54;96163.94;5123996;23;5877;-67
2021/12/24 17:57:29;;;;;;;;;;;;;;;6.24;77.45;96161.06;5149016;23;5636;-67
2021/12/24 17:59:33;;;;;;;;;;;;;;;6.29;77.82;96161.31;5098153;23;5815;-67
2021/12/24 18:01:36;;;;;;;;;;;;;;;6.40;77.19;96163.47;5121589;23;5798;-68
2021/12/24 18:03:38;;;;;;;;;;;;;;;6.51;76.21;96164.84;5149080;23;5640;-68
2021/12/24 18:05:42;;;;;;;;;;;;;;;6.43;76.30;96163.13;5146376;23;6242;-68
2021/12/24 18:07:45;;;;;;;;;;;;;;;6.45;76.79;96164.75;5120617;23;5877;-67
2021/12/24 18:09:48;;;;;;;;;;;;;;;6.51;76.09;96158.78;5119109;23;5909;-67
2021/12/24 18:11:51;;;;;;;;;;;;;;;6.50;75.54;96151.88;5145931;23;5867;-67